Airfield :
LOGIN :

Register | Disclaimer

   EN    FR    IT 

 










Legend :    VFR   Marginal VFR   IFR   Intensive IFR   Very Intensive IFR
Visi :
Ceiling :
>= 8 km
>= 3000ft
5 to 8 km
1000 to 3000 ft
1500m to 5 km
500 to 1000 ft
800 to 1500m
200 to 500 ft
< 800m
< 200 ft
Symbols :   Thunderstorms  Fog  Heavy snow  Heavy precipitations  Wind > 20 kt
SIGMETs :     Misc.  Thunderstorms  Icing  Turbulence  Mountain Waves  Volcanic Ashes






- Airport Elevation : 765 ft


LOAV - Vöslau

CURRENT METAR :
  • 181300Z 33012KT 9999 SCT030 11/03

EXPIRED METARs :
  • 181200Z 32008KT 9999 SCT030 11/03
  • 181100Z 30012KT 9999 SCT030 11/03
  • 181000Z 32015KT 9999 SCT030 10/03

TAF TAF LOAV
Valid from the 18 at 12:00 until the 18 at 21:00 UTC


181115Z 1812/1821 33013KT 9999 SCT030
TEMPO 1812/1816 33015G30KT SHRA FEW030CB BKN040



MET'MAP, your aeronautical weather chart ! - Copyright ORBIFLY December 2007 - Disclaimer

ORBIFLY MET'MAP TEAM :

Programming & Development : Alexandra Zaïnal
Original concept : Baudouin d'Aumeries
Technical & hardware support : Manuel Goepfert
Assistance : Marc-Olivier Méhu




SOURCES & CREDITS :

   NOAA